Terminal Aerodrome Forecast
Issued by NWS Nashville, TN

Current Version | Previous Version | Text Only | Print | Product List | Glossary Off
Versions: 1 2 3 4 5 6 7 8 9 10 11 12 13 14 15 16 17 18 19 20 21 22 23 24 25 26 27 28 29 30 31 32 33 34 35 36 37

478
FTUS44 KOHX 220707 AAA
TAFCSV
TAF AMD
KCSV 220707Z 2207/2306 18013G20KT P6SM BKN250
     FM221200 19007KT 3SM -SHRA OVC008
     FM222200 19003KT 5SM BR VCSH OVC025=

USA.gov is the U.S. government's official web portal to all federal, state and local government web resources and services.